createdAt,value
2022-11-13T00:02:16.176Z,5.95
2022-11-13T00:05:03.089Z,6.04
2022-11-13T00:07:50.024Z,5.90
2022-11-13T00:10:37.798Z,5.99
2022-11-13T00:13:30.145Z,5.82
2022-11-13T00:16:18.877Z,6.26
2022-11-13T00:19:06.464Z,6.01
2022-11-13T00:21:52.745Z,5.85
2022-11-13T00:24:40.187Z,5.80
2022-11-13T00:27:30.197Z,5.67
2022-11-13T00:30:19.564Z,5.90
2022-11-13T00:33:07.518Z,5.63
2022-11-13T00:35:56.736Z,5.51
2022-11-13T00:38:43.941Z,5.82
2022-11-13T00:41:30.764Z,5.96
2022-11-13T00:44:18.804Z,5.99
2022-11-13T00:47:05.424Z,5.99
2022-11-13T00:49:52.757Z,5.98
2022-11-13T00:52:39.117Z,6.09
2022-11-13T00:55:25.736Z,6.01
2022-11-13T00:58:13.339Z,5.94
2022-11-13T01:01:06.292Z,5.71
2022-11-13T01:03:53.866Z,5.72
2022-11-13T01:06:41.076Z,5.86
2022-11-13T01:09:27.129Z,5.65
2022-11-13T01:12:13.709Z,5.40
2022-11-13T01:15:00.971Z,5.62
2022-11-13T01:17:48.675Z,5.52
2022-11-13T01:20:36.303Z,5.67
2022-11-13T01:23:23.524Z,5.64
2022-11-13T01:26:10.664Z,5.56
2022-11-13T01:28:57.896Z,5.60
2022-11-13T01:31:44.094Z,5.69
2022-11-13T01:34:32.291Z,5.47
2022-11-13T01:37:18.409Z,5.59
2022-11-13T01:40:05.530Z,5.64
2022-11-13T01:42:51.832Z,5.69
2022-11-13T01:46:06.289Z,5.57
2022-11-13T01:48:55.837Z,5.70
2022-11-13T01:51:46.446Z,5.49
2022-11-13T01:54:34.310Z,5.49
2022-11-13T01:57:20.762Z,5.32
2022-11-13T02:00:09.119Z,5.21
2022-11-13T02:02:55.615Z,5.20
2022-11-13T02:05:41.854Z,5.31
2022-11-13T02:08:31.265Z,5.51
2022-11-13T02:11:18.126Z,5.67
2022-11-13T02:14:05.786Z,5.74
2022-11-13T02:16:54.230Z,5.50
2022-11-13T02:19:45.601Z,5.31
2022-11-13T02:22:36.415Z,5.19
2022-11-13T02:25:26.038Z,5.38
2022-11-13T02:28:12.660Z,5.33
2022-11-13T02:31:00.712Z,5.41
2022-11-13T02:33:46.860Z,5.28
2022-11-13T02:36:33.159Z,5.10
2022-11-13T02:39:21.809Z,5.17
2022-11-13T02:42:09.079Z,5.42
2022-11-13T02:44:56.198Z,5.17
2022-11-13T02:47:42.389Z,5.24
2022-11-13T02:50:29.115Z,5.00
2022-11-13T02:53:15.221Z,5.12
2022-11-13T02:56:01.872Z,5.42
2022-11-13T02:58:49.635Z,4.84
2022-11-13T03:01:35.855Z,4.61
2022-11-13T03:04:22.286Z,4.82
2022-11-13T03:07:08.238Z,4.85
2022-11-13T03:09:55.346Z,4.87
2022-11-13T03:12:42.036Z,4.80
2022-11-13T03:15:30.451Z,4.98
2022-11-13T03:18:17.226Z,4.98
2022-11-13T03:21:07.043Z,4.90
2022-11-13T03:23:54.998Z,4.90
2022-11-13T03:26:42.824Z,4.83
2022-11-13T03:29:29.283Z,4.67
2022-11-13T03:32:16.922Z,4.71
2022-11-13T03:35:03.224Z,4.86
2022-11-13T03:37:49.895Z,4.87
2022-11-13T03:40:36.350Z,4.85
2022-11-13T03:43:23.068Z,4.79
2022-11-13T03:46:10.558Z,4.61
2022-11-13T03:48:58.443Z,4.73
2022-11-13T03:51:45.055Z,4.85
2022-11-13T03:54:31.350Z,4.82
2022-11-13T03:57:18.307Z,4.56
2022-11-13T04:00:08.165Z,4.37
2022-11-13T04:02:54.872Z,4.47
2022-11-13T04:05:45.664Z,4.37
2022-11-13T04:08:32.600Z,4.14
2022-11-13T04:11:19.661Z,4.21
2022-11-13T04:14:07.229Z,4.10
2022-11-13T04:16:53.970Z,4.13
2022-11-13T04:19:41.113Z,4.17
2022-11-13T04:22:28.943Z,4.17
2022-11-13T04:25:14.855Z,4.24
2022-11-13T04:28:02.431Z,4.39
2022-11-13T04:30:49.440Z,4.37
2022-11-13T04:33:36.102Z,4.44
2022-11-13T04:36:22.978Z,4.42
2022-11-13T04:39:10.600Z,4.29
2022-11-13T04:42:15.288Z,3.61
2022-11-13T04:45:01.694Z,3.30
2022-11-13T04:47:48.421Z,3.24
2022-11-13T04:50:34.596Z,3.27
2022-11-13T04:53:22.170Z,3.25
2022-11-13T04:56:11.804Z,3.53
2022-11-13T04:58:58.803Z,3.59
2022-11-13T05:01:45.185Z,3.50
2022-11-13T05:04:31.492Z,3.53
2022-11-13T05:07:18.424Z,3.39
2022-11-13T05:10:05.360Z,3.58
2022-11-13T05:12:52.986Z,3.63
2022-11-13T05:15:39.710Z,3.68
2022-11-13T05:18:26.516Z,3.54
2022-11-13T05:21:12.975Z,3.51
2022-11-13T05:24:00.489Z,3.44
2022-11-13T05:26:46.704Z,3.50
2022-11-13T05:29:34.373Z,3.51
2022-11-13T05:32:20.613Z,3.38
2022-11-13T05:35:07.048Z,3.25
2022-11-13T05:37:53.654Z,3.12
2022-11-13T05:40:39.969Z,3.28
2022-11-13T05:43:26.132Z,3.32
2022-11-13T05:46:15.825Z,3.40
2022-11-13T05:49:03.039Z,3.33
2022-11-13T05:51:49.655Z,3.27
2022-11-13T05:54:37.220Z,3.16
2022-11-13T05:57:23.444Z,3.02
2022-11-13T06:00:10.403Z,2.85
2022-11-13T06:02:58.540Z,2.79
2022-11-13T06:05:45.377Z,2.88
2022-11-13T06:08:31.789Z,2.78
2022-11-13T06:11:19.849Z,2.90
2022-11-13T06:14:06.220Z,3.04
2022-11-13T06:16:52.846Z,2.90
2022-11-13T06:19:40.529Z,3.03
2022-11-13T06:22:27.050Z,3.17
2022-11-13T06:25:13.709Z,3.05
2022-11-13T06:28:00.310Z,2.95
2022-11-13T06:30:48.828Z,2.85
2022-11-13T06:33:36.069Z,2.91
2022-11-13T06:36:24.131Z,2.84
2022-11-13T06:39:11.544Z,2.87
2022-11-13T06:41:57.761Z,2.79
2022-11-13T06:44:46.099Z,2.80
2022-11-13T06:47:32.434Z,2.73
2022-11-13T06:50:18.883Z,2.68
2022-11-13T06:53:06.318Z,2.70
2022-11-13T06:55:54.847Z,2.81
2022-11-13T06:58:41.861Z,2.81
2022-11-13T07:01:28.359Z,2.83
2022-11-13T07:04:16.073Z,2.93
2022-11-13T07:07:03.063Z,2.95
2022-11-13T07:09:51.086Z,3.02
2022-11-13T07:12:37.502Z,3.05
2022-11-13T07:15:24.144Z,3.01
2022-11-13T07:18:10.697Z,3.11
2022-11-13T07:20:57.190Z,3.22
2022-11-13T07:23:44.708Z,3.42
2022-11-13T07:26:32.640Z,3.53
2022-11-13T07:29:18.942Z,3.98
2022-11-13T07:32:06.151Z,4.32
2022-11-13T07:34:52.187Z,4.35
2022-11-13T07:37:39.130Z,4.11
2022-11-13T07:40:25.507Z,4.15
2022-11-13T07:43:13.755Z,4.18
2022-11-13T07:46:00.376Z,4.16
2022-11-13T07:48:46.924Z,4.15
2022-11-13T07:51:33.710Z,4.43
2022-11-13T07:54:20.233Z,4.38
2022-11-13T07:57:06.742Z,3.94
2022-11-13T07:59:55.653Z,4.36
2022-11-13T08:02:41.597Z,4.90
2022-11-13T08:05:28.224Z,5.09
2022-11-13T08:08:14.755Z,5.75
2022-11-13T08:11:04.374Z,5.90
2022-11-13T08:13:51.106Z,5.99
2022-11-13T08:16:39.039Z,6.34
2022-11-13T08:19:25.186Z,6.72
2022-11-13T08:22:11.409Z,6.62
2022-11-13T08:24:58.136Z,6.94
2022-11-13T08:27:44.791Z,7.22
2022-11-13T08:30:30.835Z,7.33
2022-11-13T08:33:20.562Z,7.69
2022-11-13T08:36:08.048Z,7.43
2022-11-13T08:38:54.266Z,7.73
2022-11-13T08:41:40.861Z,7.96
2022-11-13T08:44:27.283Z,8.50
2022-11-13T08:47:13.481Z,8.73
2022-11-13T08:50:01.430Z,8.46
2022-11-13T08:52:47.645Z,8.19
2022-11-13T08:55:34.704Z,8.38
2022-11-13T08:58:20.794Z,8.85
2022-11-13T09:01:07.438Z,9.13
2022-11-13T09:03:56.363Z,10.04
2022-11-13T09:06:44.332Z,10.34
2022-11-13T09:09:31.486Z,11.34
2022-11-13T09:12:18.382Z,12.02
2022-11-13T09:15:05.365Z,12.51
2022-11-13T09:17:52.454Z,12.37
2022-11-13T09:20:39.321Z,12.49
2022-11-13T09:23:27.361Z,12.34
2022-11-13T09:26:13.520Z,12.27
2022-11-13T09:29:00.043Z,12.35
2022-11-13T09:31:46.928Z,12.63
2022-11-13T09:34:33.834Z,13.61
2022-11-13T09:37:20.731Z,14.24
2022-11-13T09:40:25.120Z,14.88
2022-11-13T09:43:23.558Z,13.78
2022-11-13T09:46:16.902Z,13.99
2022-11-13T09:49:07.097Z,14.47
2022-11-13T09:51:55.553Z,14.39
2022-11-13T09:54:42.009Z,14.88
2022-11-13T09:57:32.278Z,14.70
2022-11-13T10:00:21.713Z,14.67
2022-11-13T10:03:38.983Z,14.77
2022-11-13T10:06:33.037Z,15.85
2022-11-13T10:09:25.724Z,16.50
2022-11-13T10:12:14.164Z,17.37
2022-11-13T10:15:03.806Z,18.15
2022-11-13T10:17:56.679Z,17.72
2022-11-13T10:20:48.655Z,16.77
2022-11-13T10:23:36.437Z,16.66
2022-11-13T10:26:24.823Z,16.00
2022-11-13T10:29:16.270Z,16.58
2022-11-13T10:32:19.385Z,17.69
2022-11-13T10:35:25.285Z,19.69
2022-11-13T10:38:18.127Z,20.67
2022-11-13T10:41:10.525Z,21.62
2022-11-13T10:44:01.593Z,22.01
2022-11-13T10:46:49.515Z,20.79
2022-11-13T10:49:36.002Z,21.36
2022-11-13T10:52:25.220Z,22.46
2022-11-13T10:55:15.716Z,23.62
2022-11-13T10:58:03.350Z,24.74
2022-11-13T11:00:50.128Z,22.17
2022-11-13T11:03:39.690Z,20.70
2022-11-13T11:07:04.643Z,19.88
2022-11-13T11:09:43.384Z,17.45
2022-11-13T11:12:31.331Z,17.45
2022-11-13T11:15:22.848Z,18.97
2022-11-13T11:18:18.907Z,19.72
2022-11-13T11:21:09.569Z,19.66
2022-11-13T11:23:59.026Z,19.52
2022-11-13T11:26:49.478Z,20.59
2022-11-13T11:29:42.087Z,23.59
2022-11-13T11:32:34.366Z,22.78
2022-11-13T11:35:24.459Z,20.53
2022-11-13T11:38:13.864Z,20.49
2022-11-13T11:41:08.888Z,22.05
2022-11-13T11:44:04.612Z,24.21
2022-11-13T11:46:51.948Z,22.72
2022-11-13T11:49:39.501Z,21.37
2022-11-13T11:52:44.769Z,22.42
2022-11-13T11:55:35.493Z,20.82
2022-11-13T11:58:32.534Z,21.79
2022-11-13T12:01:29.641Z,22.86
2022-11-13T12:04:21.487Z,24.36
2022-11-13T12:07:18.300Z,26.56
2022-11-13T12:10:10.722Z,26.73
2022-11-13T12:13:05.663Z,26.84
2022-11-13T12:15:56.729Z,26.80
2022-11-13T12:18:50.337Z,27.07
2022-11-13T12:21:41.824Z,27.64
2022-11-13T12:24:39.416Z,27.49
2022-11-13T12:27:34.940Z,28.42
2022-11-13T12:30:23.309Z,26.83
2022-11-13T12:33:18.674Z,26.85
2022-11-13T12:36:07.709Z,27.30
2022-11-13T12:39:04.045Z,27.50
2022-11-13T12:41:54.791Z,27.97
2022-11-13T12:44:47.697Z,28.75
2022-11-13T12:47:35.879Z,28.57
2022-11-13T12:50:30.296Z,28.21
2022-11-13T12:53:27.801Z,28.12
2022-11-13T12:56:19.388Z,25.12
2022-11-13T12:59:42.677Z,23.53
2022-11-13T13:02:27.136Z,23.04
2022-11-13T13:05:27.751Z,23.50
2022-11-13T13:08:37.328Z,23.78
2022-11-13T13:11:28.071Z,22.04
2022-11-13T13:14:27.295Z,20.80
2022-11-13T13:17:21.351Z,21.32
2022-11-13T13:20:29.020Z,22.41
2022-11-13T13:23:27.033Z,22.88
2022-11-13T13:26:20.329Z,24.47
2022-11-13T13:29:20.808Z,22.26
2022-11-13T13:32:20.472Z,21.84
2022-11-13T13:35:12.470Z,21.60
2022-11-13T13:38:03.293Z,20.21
2022-11-13T13:40:58.498Z,19.18
2022-11-13T13:43:59.846Z,17.96
2022-11-13T13:46:46.500Z,18.28
2022-11-13T13:49:34.231Z,18.73
2022-11-13T13:52:24.366Z,18.97
2022-11-13T13:55:17.497Z,19.84
2022-11-13T13:58:11.285Z,20.36
2022-11-13T14:04:13.820Z,20.44
2022-11-13T14:07:01.254Z,20.41
2022-11-13T14:09:48.389Z,21.03
2022-11-13T14:12:35.212Z,21.02
2022-11-13T14:15:24.018Z,21.65
2022-11-13T14:18:16.399Z,18.29
2022-11-13T14:21:06.568Z,17.23
2022-11-13T14:23:54.782Z,18.17
2022-11-13T14:26:41.453Z,18.81
2022-11-13T14:29:33.855Z,18.94
2022-11-13T14:32:22.619Z,19.52
2022-11-13T14:35:19.313Z,20.35
2022-11-13T14:38:05.761Z,19.33
2022-11-13T14:40:52.018Z,19.15
2022-11-13T14:43:38.851Z,20.09
2022-11-13T14:46:30.347Z,18.58
2022-11-13T14:49:27.016Z,18.26
2022-11-13T14:52:23.032Z,17.27
2022-11-13T14:55:21.793Z,17.21
2022-11-13T14:58:12.462Z,16.63
2022-11-13T15:00:59.446Z,17.20
2022-11-13T15:03:46.733Z,16.81
2022-11-13T15:06:42.240Z,15.56
2022-11-13T15:09:31.328Z,15.09
2022-11-13T15:12:18.397Z,14.09
2022-11-13T15:15:04.536Z,13.32
2022-11-13T15:17:52.317Z,13.00
2022-11-13T15:20:38.286Z,12.70
2022-11-13T15:23:29.417Z,12.55
2022-11-13T15:26:17.530Z,12.32
2022-11-13T15:29:04.297Z,12.22
2022-11-13T15:31:50.713Z,11.82
2022-11-13T15:34:37.587Z,11.91
2022-11-13T15:37:24.968Z,11.96
2022-11-13T15:40:12.247Z,11.79
2022-11-13T15:43:01.398Z,11.60
2022-11-13T15:45:47.605Z,11.49
2022-11-13T15:48:35.042Z,11.40
2022-11-13T15:51:22.357Z,11.24
2022-11-13T15:54:14.334Z,11.09
2022-11-13T15:57:00.828Z,10.94
2022-11-13T15:59:48.219Z,10.92
2022-11-13T16:02:35.599Z,10.97
2022-11-13T16:05:23.590Z,10.85
2022-11-13T16:08:12.810Z,10.71
2022-11-13T16:10:59.243Z,10.51
2022-11-13T16:13:46.477Z,10.34
2022-11-13T16:16:36.059Z,10.20
2022-11-13T16:19:25.657Z,10.07
2022-11-13T16:22:17.329Z,10.01
2022-11-13T16:25:03.555Z,9.85
2022-11-13T16:27:49.719Z,9.84
2022-11-13T16:30:36.089Z,9.74
2022-11-13T16:33:24.356Z,9.60
2022-11-13T16:36:15.003Z,9.49
2022-11-13T16:39:01.813Z,9.42
2022-11-13T16:41:48.821Z,9.44
2022-11-13T16:44:35.351Z,9.35
2022-11-13T16:47:23.594Z,9.29
2022-11-13T16:50:18.704Z,9.29
2022-11-13T16:53:05.439Z,9.15
2022-11-13T16:55:52.162Z,9.09
2022-11-13T16:58:38.847Z,9.12
2022-11-13T17:01:25.693Z,9.08
2022-11-13T17:04:14.293Z,9.00
2022-11-13T17:07:02.750Z,8.90
2022-11-13T17:09:58.844Z,8.67
2022-11-13T17:12:52.439Z,8.48
2022-11-13T17:15:40.007Z,8.37
2022-11-13T17:18:26.585Z,8.36
2022-11-13T17:21:13.305Z,8.34
2022-11-13T17:24:02.607Z,8.27
2022-11-13T17:26:49.510Z,8.18
2022-11-13T17:29:36.192Z,7.86
2022-11-13T17:32:23.116Z,7.34
2022-11-13T17:35:11.108Z,7.32
2022-11-13T17:37:57.742Z,7.37
2022-11-13T17:40:45.850Z,7.63
2022-11-13T17:43:32.537Z,7.72
2022-11-13T17:46:19.659Z,7.68
2022-11-13T17:49:06.489Z,7.65
2022-11-13T17:51:53.363Z,7.52
2022-11-13T17:54:40.318Z,7.45
2022-11-13T17:57:28.074Z,7.37
2022-11-13T18:00:18.444Z,7.39
2022-11-13T18:03:06.063Z,7.49
2022-11-13T18:05:53.987Z,7.53
2022-11-13T18:08:41.568Z,7.42
2022-11-13T18:11:28.999Z,7.31
2022-11-13T18:14:19.147Z,7.29
2022-11-13T18:17:06.548Z,7.28
2022-11-13T18:20:01.347Z,7.24
2022-11-13T18:22:49.194Z,7.26
2022-11-13T18:25:39.493Z,7.21
2022-11-13T18:30:56.610Z,6.97
2022-11-13T18:33:43.438Z,6.83
2022-11-13T18:36:29.606Z,6.92
2022-11-13T18:39:17.029Z,6.83
2022-11-13T18:42:03.600Z,6.95
2022-11-13T18:44:50.466Z,6.99
2022-11-13T18:47:38.438Z,7.04
2022-11-13T18:50:24.718Z,7.22
2022-11-13T18:53:11.612Z,7.38
2022-11-13T18:56:00.242Z,7.41
2022-11-13T18:58:50.051Z,7.21
2022-11-13T19:01:39.936Z,6.96
2022-11-13T19:04:28.007Z,6.78
2022-11-13T19:07:14.831Z,6.58
2022-11-13T19:10:02.286Z,6.36
2022-11-13T19:12:49.513Z,6.14
2022-11-13T19:15:36.606Z,6.31
2022-11-13T19:18:22.686Z,6.44
2022-11-13T19:21:11.568Z,6.33
2022-11-13T19:23:58.511Z,6.04
2022-11-13T19:26:45.928Z,5.76
2022-11-13T19:29:32.186Z,5.64
2022-11-13T19:32:19.021Z,5.45
2022-11-13T19:35:05.694Z,5.08
2022-11-13T19:37:58.273Z,4.85
2022-11-13T19:40:46.004Z,4.70
2022-11-13T19:43:32.854Z,4.68
2022-11-13T19:46:19.871Z,4.76
2022-11-13T19:49:07.279Z,4.90
2022-11-13T19:51:54.739Z,5.11
2022-11-13T19:54:43.102Z,5.53
2022-11-13T19:57:29.874Z,5.68
2022-11-13T20:00:16.612Z,5.76
2022-11-13T20:03:07.334Z,5.74
2022-11-13T20:05:55.062Z,5.60
2022-11-13T20:08:41.981Z,5.24
2022-11-13T20:11:30.030Z,5.34
2022-11-13T20:14:16.787Z,5.01
2022-11-13T20:17:03.553Z,4.83
2022-11-13T20:19:50.846Z,5.15
2022-11-13T20:22:37.531Z,5.19
2022-11-13T20:25:23.779Z,5.49
2022-11-13T20:28:11.593Z,5.64
2022-11-13T20:31:05.338Z,5.60
2022-11-13T20:33:53.502Z,5.62
2022-11-13T20:36:40.331Z,5.70
2022-11-13T20:39:26.964Z,5.85
2022-11-13T20:42:13.270Z,5.83
2022-11-13T20:45:01.688Z,5.67
2022-11-13T20:47:48.210Z,5.59
2022-11-13T20:50:36.000Z,5.73
2022-11-13T20:53:22.765Z,5.83
2022-11-13T20:56:09.785Z,5.88
2022-11-13T20:58:55.977Z,5.75
2022-11-13T21:01:43.788Z,5.55
2022-11-13T21:04:30.165Z,5.64
2022-11-13T21:07:16.703Z,5.95
2022-11-13T21:10:04.044Z,5.84
2022-11-13T21:12:50.903Z,5.68
2022-11-13T21:15:38.234Z,5.77
2022-11-13T21:18:26.301Z,5.61
2022-11-13T21:21:14.230Z,5.48
2022-11-13T21:24:00.650Z,5.60
2022-11-13T21:26:48.999Z,5.79
2022-11-13T21:29:35.865Z,6.00
2022-11-13T21:32:22.452Z,6.01
2022-11-13T21:35:10.695Z,5.94
2022-11-13T21:37:57.495Z,5.62
2022-11-13T21:40:44.589Z,5.40
2022-11-13T21:43:31.170Z,5.20
2022-11-13T21:46:17.970Z,5.25
2022-11-13T21:49:05.969Z,5.13
2022-11-13T21:51:54.218Z,4.74
2022-11-13T21:54:40.946Z,4.37
2022-11-13T21:57:28.621Z,4.15
2022-11-13T22:00:16.715Z,4.15
2022-11-13T22:03:03.543Z,4.22
2022-11-13T22:05:50.831Z,4.26
2022-11-13T22:08:38.874Z,4.29
2022-11-13T22:11:25.765Z,4.34
2022-11-13T22:14:12.421Z,4.47
2022-11-13T22:16:59.293Z,4.38
2022-11-13T22:19:45.890Z,4.36
2022-11-13T22:22:32.295Z,4.37
2022-11-13T22:25:20.381Z,4.45
2022-11-13T22:28:06.877Z,4.20
2022-11-13T22:30:54.143Z,4.19
2022-11-13T22:33:45.010Z,4.22
2022-11-13T22:36:35.280Z,4.17
2022-11-13T22:39:21.840Z,4.32
2022-11-13T22:42:09.883Z,4.26
2022-11-13T22:44:56.880Z,4.21
2022-11-13T22:47:43.339Z,4.20
2022-11-13T22:50:30.329Z,3.92
2022-11-13T22:53:16.797Z,3.72
2022-11-13T22:56:04.032Z,3.64
2022-11-13T22:58:53.380Z,3.69
2022-11-13T23:01:41.359Z,3.77
2022-11-13T23:04:28.356Z,3.84
2022-11-13T23:07:15.207Z,3.82
2022-11-13T23:10:01.949Z,3.89
2022-11-13T23:12:48.421Z,3.91
2022-11-13T23:15:36.278Z,3.99
2022-11-13T23:18:22.692Z,3.85
2022-11-13T23:21:10.051Z,3.78
2022-11-13T23:23:57.047Z,4.16
2022-11-13T23:26:44.214Z,4.50
2022-11-13T23:29:30.690Z,4.55
2022-11-13T23:32:18.694Z,4.56
2022-11-13T23:35:05.326Z,4.13
2022-11-13T23:37:52.282Z,3.92
2022-11-13T23:40:39.080Z,4.08
2022-11-13T23:43:41.682Z,4.37
2022-11-13T23:46:32.792Z,4.46
2022-11-13T23:49:20.831Z,4.41
2022-11-13T23:52:07.434Z,4.44
2022-11-13T23:54:53.975Z,4.48
2022-11-13T23:57:40.827Z,4.62
